Terminal Aerodrome Forecast
Issued by NWS Shreveport, LA

Home | Current Version | Previous Version | Text Only | Print | Product List | Glossary On
Versions: 1 2 3 4 5 6 7 8 9 10 11 12 13 14 15 16 17
000
FTUS44 KSHV 191700
TAFGGG
TAF
KGGG 191740Z 1918/2018 11005KT P6SM BKN035
     FM200100 12004KT P6SM SCT250
     FM200900 13004KT 6SM BR SCT007
      TEMPO 2010/2014 3SM BR BKN007
     FM201500 14006KT P6SM FEW020=

USA.gov is the U.S. government's official web portal to all federal, state and local government web resources and services.